Aérodrome :
LOGIN :

S'inscrire | Disclaimer

   EN    FR    IT 

 










Légende :    VFR   VFR Marginal   IFR   IFR Intensif   IFR Très Intensif
Visi : 
Plafond : 
>= 8 km
>= 3000ft
5 à 8 km
1000 à 3000 ft
1500m à 5 km
500 à 1000 ft
800 à 1500m
200 à 500 ft
< 800m
< 200 ft
Symboles :   Orages  Brouillard  Fortes neiges  Fortes précipitations  Vent > 20 kt
SIGMETs :   Divers  Orages  Givrage  Turbulence  Onde Orograph.  Cendres Volcan.






- Altitude de l'aérodrome : 614 ft
- Code IATA : CRL


EBCI - Charleroi

DERNIER METAR :
  • 272120Z 25007KT 9999 FEW010 SCT025 BKN040 02/M00 Q1011 TEMPO 4000 SHRASN

METARs EXPIRÉS :
  • 272050Z 26006KT 230V300 9999 FEW008 SCT025 02/M00 Q1010 TEMPO 4000 SHRASN
  • 272020Z 27007KT 240V300 9999 FEW008 SCT025 02/00 Q1009 NOSIG
  • 271950Z 28007KT 240V310 9999 FEW008 SCT025 02/00 Q1008 NOSIG
  • 271920Z 29008KT 260V330 9999 FEW008 BKN025 03/01 Q1007 NOSIG
  • 271850Z 30008KT 260V340 8000 -SHRA SCT005 BKN007 03/01 Q1006 TEMPO 30015G25KT

TAF TAF EBCI
Valide du 27 à 18h jusqu'au 29 à 00h UTC


271710Z 2718/2824 30010KT 9999 SCT006 BKN012
TEMPO 2718/2720 30015G25KT 4000 SHRAGS BKN012CB
BECMG 2721/2723 26008KT FEW012 SCT030
BECMG 2815/2817 18015G25KT BKN010
TEMPO 2820/2824 4000 -RADZ BKN005



MET'MAP, la Météo Aéronautique d'un coup d'oeil ! - Copyright ORBIFLY Décembre 2007 - Disclaimer

ORBIFLY MET'MAP TEAM :

Programmation & Développement : Alexandra Zaïnal
Sur une idée originale de : Baudouin d'Aumeries
Assistance à la programmation : Marc-Olivier Méhu
Soutien technique & logistique : Manuel Goepfert

Contact : metmap@orbifly.com




SOURCES & CREDITS :

   NOAA